sensor_id;sensor_type;location;lat;lon;timestamp;P1;durP1;ratioP1;P2;durP2;ratioP2
39814;SDS011;25495;45.948;4.568;2023-02-15T00:00:22;20.52;;;11.77;;
39814;SDS011;25495;45.948;4.568;2023-02-15T00:02:48;21.52;;;12.30;;
39814;SDS011;25495;45.948;4.568;2023-02-15T00:05:14;22.80;;;12.55;;
39814;SDS011;25495;45.948;4.568;2023-02-15T00:07:40;19.40;;;11.98;;
39814;SDS011;25495;45.948;4.568;2023-02-15T00:10:06;18.83;;;10.73;;
39814;SDS011;25495;45.948;4.568;2023-02-15T00:12:32;19.95;;;11.45;;
39814;SDS011;25495;45.948;4.568;2023-02-15T00:14:58;16.52;;;10.00;;
39814;SDS011;25495;45.948;4.568;2023-02-15T00:17:23;19.42;;;10.93;;
39814;SDS011;25495;45.948;4.568;2023-02-15T00:19:51;15.82;;;9.50;;
39814;SDS011;25495;45.948;4.568;2023-02-15T00:22:17;17.70;;;9.65;;
39814;SDS011;25495;45.948;4.568;2023-02-15T00:24:43;17.77;;;10.85;;
39814;SDS011;25495;45.948;4.568;2023-02-15T00:27:08;19.13;;;11.00;;
39814;SDS011;25495;45.948;4.568;2023-02-15T00:29:34;17.60;;;9.95;;
39814;SDS011;25495;45.948;4.568;2023-02-15T00:32:00;17.98;;;10.98;;
39814;SDS011;25495;45.948;4.568;2023-02-15T00:34:26;20.20;;;11.48;;
39814;SDS011;25495;45.948;4.568;2023-02-15T00:36:53;18.35;;;10.48;;
39814;SDS011;25495;45.948;4.568;2023-02-15T00:39:19;18.30;;;10.50;;
39814;SDS011;25495;45.948;4.568;2023-02-15T00:41:45;18.70;;;10.13;;
39814;SDS011;25495;45.948;4.568;2023-02-15T00:44:12;16.70;;;10.50;;
39814;SDS011;25495;45.948;4.568;2023-02-15T00:46:38;19.33;;;10.50;;
39814;SDS011;25495;45.948;4.568;2023-02-15T00:49:04;16.58;;;9.48;;
39814;SDS011;25495;45.948;4.568;2023-02-15T00:51:31;19.23;;;11.02;;
39814;SDS011;25495;45.948;4.568;2023-02-15T00:53:57;17.23;;;10.90;;
39814;SDS011;25495;45.948;4.568;2023-02-15T00:56:23;20.63;;;11.38;;
39814;SDS011;25495;45.948;4.568;2023-02-15T00:58:49;19.73;;;11.20;;
39814;SDS011;25495;45.948;4.568;2023-02-15T01:01:16;23.77;;;12.15;;
39814;SDS011;25495;45.948;4.568;2023-02-15T01:03:44;19.83;;;11.68;;
39814;SDS011;25495;45.948;4.568;2023-02-15T01:06:11;21.73;;;12.32;;
39814;SDS011;25495;45.948;4.568;2023-02-15T01:08:38;20.67;;;10.95;;
39814;SDS011;25495;45.948;4.568;2023-02-15T01:11:05;17.48;;;10.60;;
39814;SDS011;25495;45.948;4.568;2023-02-15T01:13:33;21.15;;;11.98;;
39814;SDS011;25495;45.948;4.568;2023-02-15T01:15:59;19.80;;;12.20;;
39814;SDS011;25495;45.948;4.568;2023-02-15T01:18:25;18.23;;;10.52;;
39814;SDS011;25495;45.948;4.568;2023-02-15T01:20:51;19.50;;;11.23;;
39814;SDS011;25495;45.948;4.568;2023-02-15T01:23:17;16.92;;;10.90;;
39814;SDS011;25495;45.948;4.568;2023-02-15T01:25:43;17.73;;;10.57;;
39814;SDS011;25495;45.948;4.568;2023-02-15T01:28:09;19.67;;;11.07;;
39814;SDS011;25495;45.948;4.568;2023-02-15T01:30:35;21.92;;;11.10;;
39814;SDS011;25495;45.948;4.568;2023-02-15T01:33:01;18.20;;;10.98;;
39814;SDS011;25495;45.948;4.568;2023-02-15T01:35:27;19.42;;;11.18;;
39814;SDS011;25495;45.948;4.568;2023-02-15T01:37:54;19.20;;;10.75;;
39814;SDS011;25495;45.948;4.568;2023-02-15T01:40:21;21.30;;;11.45;;
39814;SDS011;25495;45.948;4.568;2023-02-15T01:42:51;18.33;;;10.85;;
39814;SDS011;25495;45.948;4.568;2023-02-15T01:45:29;21.17;;;11.57;;
39814;SDS011;25495;45.948;4.568;2023-02-15T01:48:02;18.92;;;10.55;;
39814;SDS011;25495;45.948;4.568;2023-02-15T01:50:30;21.40;;;11.82;;
39814;SDS011;25495;45.948;4.568;2023-02-15T01:53:24;22.33;;;11.90;;
39814;SDS011;25495;45.948;4.568;2023-02-15T01:55:58;21.23;;;12.07;;
39814;SDS011;25495;45.948;4.568;2023-02-15T01:58:27;20.55;;;12.35;;
39814;SDS011;25495;45.948;4.568;2023-02-15T02:00:54;22.05;;;11.93;;
39814;SDS011;25495;45.948;4.568;2023-02-15T02:06:14;23.45;;;13.32;;
39814;SDS011;25495;45.948;4.568;2023-02-15T02:08:41;20.58;;;12.85;;
39814;SDS011;25495;45.948;4.568;2023-02-15T02:11:11;22.17;;;13.52;;
39814;SDS011;25495;45.948;4.568;2023-02-15T02:13:41;21.63;;;12.90;;
39814;SDS011;25495;45.948;4.568;2023-02-15T02:16:11;21.70;;;12.38;;
39814;SDS011;25495;45.948;4.568;2023-02-15T02:18:59;24.23;;;12.93;;
39814;SDS011;25495;45.948;4.568;2023-02-15T02:27:47;17.15;;;10.23;;
39814;SDS011;25495;45.948;4.568;2023-02-15T02:49:15;17.45;;;9.68;;
39814;SDS011;25495;45.948;4.568;2023-02-15T02:51:41;18.80;;;10.00;;
39814;SDS011;25495;45.948;4.568;2023-02-15T02:54:06;19.90;;;10.55;;
39814;SDS011;25495;45.948;4.568;2023-02-15T02:56:37;16.88;;;9.32;;
39814;SDS011;25495;45.948;4.568;2023-02-15T02:59:16;18.45;;;10.32;;
39814;SDS011;25495;45.948;4.568;2023-02-15T03:01:47;17.45;;;10.32;;
39814;SDS011;25495;45.948;4.568;2023-02-15T03:04:38;19.50;;;10.88;;
39814;SDS011;25495;45.948;4.568;2023-02-15T03:07:10;23.85;;;12.95;;
39814;SDS011;25495;45.948;4.568;2023-02-15T03:09:48;22.95;;;13.20;;
39814;SDS011;25495;45.948;4.568;2023-02-15T03:14:50;21.10;;;13.35;;
39814;SDS011;25495;45.948;4.568;2023-02-15T03:17:19;28.50;;;14.57;;
39814;SDS011;25495;45.948;4.568;2023-02-15T03:19:49;23.80;;;13.38;;
39814;SDS011;25495;45.948;4.568;2023-02-15T03:24:57;23.83;;;14.25;;
39814;SDS011;25495;45.948;4.568;2023-02-15T03:27:36;22.45;;;13.60;;
39814;SDS011;25495;45.948;4.568;2023-02-15T03:30:11;27.02;;;14.57;;
39814;SDS011;25495;45.948;4.568;2023-02-15T03:32:39;25.98;;;15.45;;
39814;SDS011;25495;45.948;4.568;2023-02-15T03:35:06;28.63;;;16.67;;
39814;SDS011;25495;45.948;4.568;2023-02-15T03:37:37;28.02;;;17.25;;
39814;SDS011;25495;45.948;4.568;2023-02-15T03:40:18;28.17;;;16.30;;
39814;SDS011;25495;45.948;4.568;2023-02-15T03:43:27;30.80;;;17.48;;
39814;SDS011;25495;45.948;4.568;2023-02-15T03:45:56;32.53;;;17.90;;
39814;SDS011;25495;45.948;4.568;2023-02-15T03:49:12;29.58;;;17.88;;
39814;SDS011;25495;45.948;4.568;2023-02-15T03:51:39;31.33;;;17.45;;
39814;SDS011;25495;45.948;4.568;2023-02-15T03:54:12;31.77;;;18.65;;
39814;SDS011;25495;45.948;4.568;2023-02-15T03:59:57;40.85;;;21.48;;
39814;SDS011;25495;45.948;4.568;2023-02-15T04:03:01;38.92;;;22.15;;
39814;SDS011;25495;45.948;4.568;2023-02-15T04:05:34;46.38;;;22.42;;
39814;SDS011;25495;45.948;4.568;2023-02-15T04:08:00;41.05;;;21.77;;
39814;SDS011;25495;45.948;4.568;2023-02-15T04:10:26;41.10;;;23.30;;
39814;SDS011;25495;45.948;4.568;2023-02-15T04:13:11;43.63;;;24.30;;
39814;SDS011;25495;45.948;4.568;2023-02-15T04:15:37;43.30;;;23.10;;
39814;SDS011;25495;45.948;4.568;2023-02-15T04:18:21;43.95;;;23.38;;
39814;SDS011;25495;45.948;4.568;2023-02-15T04:20:46;43.28;;;24.90;;
39814;SDS011;25495;45.948;4.568;2023-02-15T04:23:31;46.47;;;22.95;;
39814;SDS011;25495;45.948;4.568;2023-02-15T04:26:15;43.20;;;22.42;;
39814;SDS011;25495;45.948;4.568;2023-02-15T04:28:41;41.13;;;23.00;;
39814;SDS011;25495;45.948;4.568;2023-02-15T04:31:07;38.97;;;22.17;;
39814;SDS011;25495;45.948;4.568;2023-02-15T04:33:33;44.90;;;23.42;;
39814;SDS011;25495;45.948;4.568;2023-02-15T04:36:01;42.35;;;23.80;;
39814;SDS011;25495;45.948;4.568;2023-02-15T04:38:28;40.83;;;21.23;;
39814;SDS011;25495;45.948;4.568;2023-02-15T04:40:53;39.38;;;22.73;;
39814;SDS011;25495;45.948;4.568;2023-02-15T04:43:19;42.67;;;22.45;;
39814;SDS011;25495;45.948;4.568;2023-02-15T04:45:49;38.78;;;20.23;;
39814;SDS011;25495;45.948;4.568;2023-02-15T04:48:15;38.17;;;21.23;;
39814;SDS011;25495;45.948;4.568;2023-02-15T04:50:42;37.63;;;21.50;;
39814;SDS011;25495;45.948;4.568;2023-02-15T04:53:08;37.55;;;22.02;;
39814;SDS011;25495;45.948;4.568;2023-02-15T04:55:34;37.17;;;19.52;;
39814;SDS011;25495;45.948;4.568;2023-02-15T04:58:00;39.55;;;22.30;;
39814;SDS011;25495;45.948;4.568;2023-02-15T05:00:29;37.30;;;21.15;;
39814;SDS011;25495;45.948;4.568;2023-02-15T05:02:54;43.13;;;21.60;;
39814;SDS011;25495;45.948;4.568;2023-02-15T05:05:20;35.30;;;20.38;;
39814;SDS011;25495;45.948;4.568;2023-02-15T05:07:46;40.20;;;21.20;;
39814;SDS011;25495;45.948;4.568;2023-02-15T05:10:12;41.50;;;19.88;;
39814;SDS011;25495;45.948;4.568;2023-02-15T05:12:37;36.67;;;18.90;;
39814;SDS011;25495;45.948;4.568;2023-02-15T05:15:03;38.05;;;20.38;;
39814;SDS011;25495;45.948;4.568;2023-02-15T05:17:29;37.25;;;20.73;;
39814;SDS011;25495;45.948;4.568;2023-02-15T05:19:55;35.15;;;20.50;;
39814;SDS011;25495;45.948;4.568;2023-02-15T05:22:21;35.97;;;19.95;;
39814;SDS011;25495;45.948;4.568;2023-02-15T05:24:47;38.70;;;20.60;;
39814;SDS011;25495;45.948;4.568;2023-02-15T05:27:32;37.35;;;20.15;;
39814;SDS011;25495;45.948;4.568;2023-02-15T05:30:16;37.67;;;19.90;;
39814;SDS011;25495;45.948;4.568;2023-02-15T05:32:42;38.88;;;21.27;;
39814;SDS011;25495;45.948;4.568;2023-02-15T05:35:11;33.97;;;18.85;;
39814;SDS011;25495;45.948;4.568;2023-02-15T05:37:39;39.65;;;19.85;;
39814;SDS011;25495;45.948;4.568;2023-02-15T05:40:05;37.45;;;20.30;;
39814;SDS011;25495;45.948;4.568;2023-02-15T05:42:32;36.33;;;20.50;;
39814;SDS011;25495;45.948;4.568;2023-02-15T05:44:57;36.45;;;20.33;;
39814;SDS011;25495;45.948;4.568;2023-02-15T05:47:26;37.13;;;20.15;;
39814;SDS011;25495;45.948;4.568;2023-02-15T05:49:52;37.55;;;21.02;;
39814;SDS011;25495;45.948;4.568;2023-02-15T05:52:18;35.00;;;19.70;;
39814;SDS011;25495;45.948;4.568;2023-02-15T05:54:44;37.08;;;21.95;;
39814;SDS011;25495;45.948;4.568;2023-02-15T05:57:09;39.38;;;21.98;;
39814;SDS011;25495;45.948;4.568;2023-02-15T05:59:35;38.83;;;22.02;;
39814;SDS011;25495;45.948;4.568;2023-02-15T06:02:01;38.63;;;21.17;;
39814;SDS011;25495;45.948;4.568;2023-02-15T06:04:27;38.22;;;20.13;;
39814;SDS011;25495;45.948;4.568;2023-02-15T06:06:52;34.28;;;18.05;;
39814;SDS011;25495;45.948;4.568;2023-02-15T06:09:18;33.72;;;18.38;;
39814;SDS011;25495;45.948;4.568;2023-02-15T06:11:45;28.33;;;16.30;;
39814;SDS011;25495;45.948;4.568;2023-02-15T06:14:11;29.60;;;17.27;;
39814;SDS011;25495;45.948;4.568;2023-02-15T06:16:37;34.25;;;18.65;;
39814;SDS011;25495;45.948;4.568;2023-02-15T06:19:03;30.20;;;17.45;;
39814;SDS011;25495;45.948;4.568;2023-02-15T06:21:32;31.83;;;16.63;;
39814;SDS011;25495;45.948;4.568;2023-02-15T06:23:58;36.95;;;18.73;;
39814;SDS011;25495;45.948;4.568;2023-02-15T06:26:24;36.92;;;18.50;;
39814;SDS011;25495;45.948;4.568;2023-02-15T06:28:49;37.05;;;19.65;;
39814;SDS011;25495;45.948;4.568;2023-02-15T06:31:15;39.60;;;20.92;;
39814;SDS011;25495;45.948;4.568;2023-02-15T06:33:41;37.95;;;21.42;;
39814;SDS011;25495;45.948;4.568;2023-02-15T06:36:07;41.55;;;22.98;;
39814;SDS011;25495;45.948;4.568;2023-02-15T06:38:33;39.05;;;20.00;;
39814;SDS011;25495;45.948;4.568;2023-02-15T06:40:58;37.33;;;18.70;;
39814;SDS011;25495;45.948;4.568;2023-02-15T06:43:24;33.33;;;18.20;;
39814;SDS011;25495;45.948;4.568;2023-02-15T06:45:50;30.70;;;16.17;;
39814;SDS011;25495;45.948;4.568;2023-02-15T06:48:16;31.08;;;17.73;;
39814;SDS011;25495;45.948;4.568;2023-02-15T06:50:41;34.35;;;17.88;;
39814;SDS011;25495;45.948;4.568;2023-02-15T06:53:07;29.98;;;16.75;;
39814;SDS011;25495;45.948;4.568;2023-02-15T06:55:33;30.75;;;17.17;;
39814;SDS011;25495;45.948;4.568;2023-02-15T06:57:59;35.00;;;18.70;;
39814;SDS011;25495;45.948;4.568;2023-02-15T07:00:25;30.40;;;16.83;;
39814;SDS011;25495;45.948;4.568;2023-02-15T07:02:57;31.17;;;17.08;;
39814;SDS011;25495;45.948;4.568;2023-02-15T07:05:27;32.58;;;17.08;;
39814;SDS011;25495;45.948;4.568;2023-02-15T07:07:56;29.80;;;17.17;;
39814;SDS011;25495;45.948;4.568;2023-02-15T07:10:22;34.38;;;17.05;;
39814;SDS011;25495;45.948;4.568;2023-02-15T07:12:48;35.83;;;17.45;;
39814;SDS011;25495;45.948;4.568;2023-02-15T07:15:15;32.97;;;18.35;;
39814;SDS011;25495;45.948;4.568;2023-02-15T07:17:42;35.55;;;18.83;;
39814;SDS011;25495;45.948;4.568;2023-02-15T07:20:12;36.65;;;18.45;;
39814;SDS011;25495;45.948;4.568;2023-02-15T07:22:40;35.90;;;18.67;;
39814;SDS011;25495;45.948;4.568;2023-02-15T07:25:07;35.80;;;19.13;;
39814;SDS011;25495;45.948;4.568;2023-02-15T07:27:34;41.35;;;22.08;;
39814;SDS011;25495;45.948;4.568;2023-02-15T07:30:01;36.95;;;19.17;;
39814;SDS011;25495;45.948;4.568;2023-02-15T07:32:29;38.38;;;19.67;;
39814;SDS011;25495;45.948;4.568;2023-02-15T07:34:56;36.28;;;19.25;;
39814;SDS011;25495;45.948;4.568;2023-02-15T07:37:22;37.70;;;19.23;;
39814;SDS011;25495;45.948;4.568;2023-02-15T07:39:49;36.38;;;20.77;;
39814;SDS011;25495;45.948;4.568;2023-02-15T07:42:15;33.28;;;18.40;;
39814;SDS011;25495;45.948;4.568;2023-02-15T07:44:43;37.50;;;20.13;;
39814;SDS011;25495;45.948;4.568;2023-02-15T07:47:09;35.33;;;20.95;;
39814;SDS011;25495;45.948;4.568;2023-02-15T07:49:35;37.30;;;19.58;;
39814;SDS011;25495;45.948;4.568;2023-02-15T07:52:01;32.20;;;19.30;;
39814;SDS011;25495;45.948;4.568;2023-02-15T07:54:28;36.70;;;21.02;;
39814;SDS011;25495;45.948;4.568;2023-02-15T07:56:54;31.48;;;18.27;;
39814;SDS011;25495;45.948;4.568;2023-02-15T07:59:20;35.22;;;18.75;;
39814;SDS011;25495;45.948;4.568;2023-02-15T08:01:46;34.13;;;19.00;;
39814;SDS011;25495;45.948;4.568;2023-02-15T08:04:12;33.97;;;18.60;;
39814;SDS011;25495;45.948;4.568;2023-02-15T08:06:39;33.10;;;18.95;;
39814;SDS011;25495;45.948;4.568;2023-02-15T08:09:06;31.60;;;17.80;;
39814;SDS011;25495;45.948;4.568;2023-02-15T08:11:34;33.47;;;19.10;;
39814;SDS011;25495;45.948;4.568;2023-02-15T08:14:05;33.72;;;19.88;;
39814;SDS011;25495;45.948;4.568;2023-02-15T08:16:50;46.75;;;23.55;;
39814;SDS011;25495;45.948;4.568;2023-02-15T08:19:29;33.08;;;19.27;;
39814;SDS011;25495;45.948;4.568;2023-02-15T08:22:00;33.20;;;18.52;;
39814;SDS011;25495;45.948;4.568;2023-02-15T08:24:30;35.88;;;20.52;;
39814;SDS011;25495;45.948;4.568;2023-02-15T08:26:57;39.80;;;18.88;;
39814;SDS011;25495;45.948;4.568;2023-02-15T08:29:24;32.53;;;18.63;;
39814;SDS011;25495;45.948;4.568;2023-02-15T08:31:52;35.17;;;20.17;;
39814;SDS011;25495;45.948;4.568;2023-02-15T08:34:23;33.45;;;18.98;;
39814;SDS011;25495;45.948;4.568;2023-02-15T08:36:49;36.95;;;18.40;;
39814;SDS011;25495;45.948;4.568;2023-02-15T08:39:16;42.72;;;22.50;;
39814;SDS011;25495;45.948;4.568;2023-02-15T08:41:43;38.28;;;20.90;;
39814;SDS011;25495;45.948;4.568;2023-02-15T08:44:10;30.38;;;18.98;;
39814;SDS011;25495;45.948;4.568;2023-02-15T08:46:36;31.90;;;18.60;;
39814;SDS011;25495;45.948;4.568;2023-02-15T08:49:04;36.42;;;19.48;;
39814;SDS011;25495;45.948;4.568;2023-02-15T08:51:34;31.23;;;18.25;;
39814;SDS011;25495;45.948;4.568;2023-02-15T08:54:03;32.72;;;18.55;;
39814;SDS011;25495;45.948;4.568;2023-02-15T08:56:38;34.78;;;19.00;;
39814;SDS011;25495;45.948;4.568;2023-02-15T08:59:06;34.45;;;19.60;;
39814;SDS011;25495;45.948;4.568;2023-02-15T09:01:36;33.10;;;18.35;;
39814;SDS011;25495;45.948;4.568;2023-02-15T09:04:03;31.13;;;18.55;;
39814;SDS011;25495;45.948;4.568;2023-02-15T09:06:30;29.33;;;17.42;;
39814;SDS011;25495;45.948;4.568;2023-02-15T09:08:58;31.77;;;17.70;;
39814;SDS011;25495;45.948;4.568;2023-02-15T09:11:29;34.03;;;19.13;;
39814;SDS011;25495;45.948;4.568;2023-02-15T09:14:01;34.78;;;19.35;;
39814;SDS011;25495;45.948;4.568;2023-02-15T09:16:30;40.10;;;22.65;;
39814;SDS011;25495;45.948;4.568;2023-02-15T09:18:57;47.28;;;25.33;;
39814;SDS011;25495;45.948;4.568;2023-02-15T09:21:27;56.25;;;28.70;;
39814;SDS011;25495;45.948;4.568;2023-02-15T09:24:04;46.75;;;23.45;;
39814;SDS011;25495;45.948;4.568;2023-02-15T09:26:34;39.88;;;21.50;;
39814;SDS011;25495;45.948;4.568;2023-02-15T09:29:05;43.80;;;23.30;;
39814;SDS011;25495;45.948;4.568;2023-02-15T09:31:38;38.25;;;22.05;;
39814;SDS011;25495;45.948;4.568;2023-02-15T09:34:09;50.00;;;26.92;;
39814;SDS011;25495;45.948;4.568;2023-02-15T09:36:42;48.70;;;25.95;;
39814;SDS011;25495;45.948;4.568;2023-02-15T09:39:09;50.22;;;26.30;;
39814;SDS011;25495;45.948;4.568;2023-02-15T09:41:56;43.97;;;23.75;;
39814;SDS011;25495;45.948;4.568;2023-02-15T09:45:01;39.78;;;20.85;;
39814;SDS011;25495;45.948;4.568;2023-02-15T10:02:15;54.97;;;26.45;;
39814;SDS011;25495;45.948;4.568;2023-02-15T10:04:57;49.15;;;27.38;;
39814;SDS011;25495;45.948;4.568;2023-02-15T10:13:05;44.95;;;23.70;;
39814;SDS011;25495;45.948;4.568;2023-02-15T10:18:11;40.75;;;23.35;;
39814;SDS011;25495;45.948;4.568;2023-02-15T10:34:50;45.08;;;24.90;;
39814;SDS011;25495;45.948;4.568;2023-02-15T10:37:34;48.13;;;26.13;;
39814;SDS011;25495;45.948;4.568;2023-02-15T10:43:14;46.83;;;25.15;;
39814;SDS011;25495;45.948;4.568;2023-02-15T10:48:41;46.67;;;24.92;;
39814;SDS011;25495;45.948;4.568;2023-02-15T10:51:10;37.08;;;21.70;;
39814;SDS011;25495;45.948;4.568;2023-02-15T10:59:37;46.78;;;25.60;;
39814;SDS011;25495;45.948;4.568;2023-02-15T11:02:46;42.65;;;23.77;;
39814;SDS011;25495;45.948;4.568;2023-02-15T11:07:59;38.60;;;20.45;;
39814;SDS011;25495;45.948;4.568;2023-02-15T11:13:14;46.67;;;23.90;;
39814;SDS011;25495;45.948;4.568;2023-02-15T11:18:37;36.73;;;20.43;;
39814;SDS011;25495;45.948;4.568;2023-02-15T11:21:55;60.83;;;24.83;;
39814;SDS011;25495;45.948;4.568;2023-02-15T11:24:07;48.70;;;23.42;;
39814;SDS011;25495;45.948;4.568;2023-02-15T11:31:51;38.00;;;20.42;;
39814;SDS011;25495;45.948;4.568;2023-02-15T11:34:37;36.95;;;20.20;;
39814;SDS011;25495;45.948;4.568;2023-02-15T11:37:13;44.00;;;21.50;;
39814;SDS011;25495;45.948;4.568;2023-02-15T11:39:43;38.00;;;21.45;;
39814;SDS011;25495;45.948;4.568;2023-02-15T11:42:11;38.58;;;20.15;;
39814;SDS011;25495;45.948;4.568;2023-02-15T11:44:54;38.25;;;20.33;;
39814;SDS011;25495;45.948;4.568;2023-02-15T11:47:45;35.17;;;19.08;;
39814;SDS011;25495;45.948;4.568;2023-02-15T11:50:15;39.78;;;20.77;;
39814;SDS011;25495;45.948;4.568;2023-02-15T11:52:55;39.67;;;20.80;;
39814;SDS011;25495;45.948;4.568;2023-02-15T11:55:30;42.22;;;21.90;;
39814;SDS011;25495;45.948;4.568;2023-02-15T12:03:26;39.75;;;21.17;;
39814;SDS011;25495;45.948;4.568;2023-02-15T12:06:02;43.30;;;22.30;;
39814;SDS011;25495;45.948;4.568;2023-02-15T12:08:40;42.03;;;21.98;;
39814;SDS011;25495;45.948;4.568;2023-02-15T12:11:22;42.58;;;21.67;;
39814;SDS011;25495;45.948;4.568;2023-02-15T12:14:10;44.45;;;21.30;;
39814;SDS011;25495;45.948;4.568;2023-02-15T12:16:41;41.53;;;21.33;;
39814;SDS011;25495;45.948;4.568;2023-02-15T12:19:29;37.88;;;20.35;;
39814;SDS011;25495;45.948;4.568;2023-02-15T12:21:58;40.70;;;20.35;;
39814;SDS011;25495;45.948;4.568;2023-02-15T12:24:32;34.58;;;18.65;;
39814;SDS011;25495;45.948;4.568;2023-02-15T12:29:41;34.55;;;18.88;;
39814;SDS011;25495;45.948;4.568;2023-02-15T12:32:11;33.67;;;18.10;;
39814;SDS011;25495;45.948;4.568;2023-02-15T12:34:43;36.58;;;19.13;;
39814;SDS011;25495;45.948;4.568;2023-02-15T12:37:15;33.15;;;17.77;;
39814;SDS011;25495;45.948;4.568;2023-02-15T12:39:52;35.90;;;18.80;;
39814;SDS011;25495;45.948;4.568;2023-02-15T12:42:20;31.08;;;17.45;;
39814;SDS011;25495;45.948;4.568;2023-02-15T12:44:57;31.60;;;16.67;;
39814;SDS011;25495;45.948;4.568;2023-02-15T12:47:28;30.73;;;15.25;;
39814;SDS011;25495;45.948;4.568;2023-02-15T12:50:41;26.85;;;15.77;;
39814;SDS011;25495;45.948;4.568;2023-02-15T12:52:49;26.73;;;15.18;;
39814;SDS011;25495;45.948;4.568;2023-02-15T12:55:34;28.27;;;16.27;;
39814;SDS011;25495;45.948;4.568;2023-02-15T12:58:07;27.42;;;15.43;;
39814;SDS011;25495;45.948;4.568;2023-02-15T13:03:34;26.80;;;14.38;;
39814;SDS011;25495;45.948;4.568;2023-02-15T13:06:03;28.88;;;15.60;;
39814;SDS011;25495;45.948;4.568;2023-02-15T13:11:21;25.58;;;15.30;;
39814;SDS011;25495;45.948;4.568;2023-02-15T13:16:47;24.92;;;14.40;;
39814;SDS011;25495;45.948;4.568;2023-02-15T13:19:23;28.58;;;15.43;;
39814;SDS011;25495;45.948;4.568;2023-02-15T13:22:06;26.02;;;15.52;;
39814;SDS011;25495;45.948;4.568;2023-02-15T13:24:38;28.83;;;14.75;;
39814;SDS011;25495;45.948;4.568;2023-02-15T13:27:14;28.40;;;16.47;;
39814;SDS011;25495;45.948;4.568;2023-02-15T13:29:46;27.17;;;15.30;;
39814;SDS011;25495;45.948;4.568;2023-02-15T13:32:21;29.52;;;15.05;;
39814;SDS011;25495;45.948;4.568;2023-02-15T13:34:57;26.52;;;14.95;;
39814;SDS011;25495;45.948;4.568;2023-02-15T13:42:36;25.88;;;13.60;;
39814;SDS011;25495;45.948;4.568;2023-02-15T13:48:44;21.58;;;12.95;;
39814;SDS011;25495;45.948;4.568;2023-02-15T13:53:42;29.67;;;16.15;;
39814;SDS011;25495;45.948;4.568;2023-02-15T13:59:28;31.88;;;17.23;;
39814;SDS011;25495;45.948;4.568;2023-02-15T14:10:18;21.83;;;12.85;;
39814;SDS011;25495;45.948;4.568;2023-02-15T14:18:55;22.98;;;13.13;;
39814;SDS011;25495;45.948;4.568;2023-02-15T14:21:44;21.10;;;11.50;;
39814;SDS011;25495;45.948;4.568;2023-02-15T14:27:10;26.08;;;13.32;;
39814;SDS011;25495;45.948;4.568;2023-02-15T14:29:43;20.65;;;12.18;;
39814;SDS011;25495;45.948;4.568;2023-02-15T14:35:26;22.42;;;12.65;;
39814;SDS011;25495;45.948;4.568;2023-02-15T14:48:33;21.55;;;12.98;;
39814;SDS011;25495;45.948;4.568;2023-02-15T14:51:58;22.92;;;13.05;;
39814;SDS011;25495;45.948;4.568;2023-02-15T14:54:56;21.65;;;12.27;;
39814;SDS011;25495;45.948;4.568;2023-02-15T14:59:50;31.58;;;16.45;;
39814;SDS011;25495;45.948;4.568;2023-02-15T15:05:18;33.38;;;18.83;;
39814;SDS011;25495;45.948;4.568;2023-02-15T15:07:59;28.33;;;15.27;;
39814;SDS011;25495;45.948;4.568;2023-02-15T15:15:56;27.08;;;14.35;;
39814;SDS011;25495;45.948;4.568;2023-02-15T15:18:46;20.77;;;12.68;;
39814;SDS011;25495;45.948;4.568;2023-02-15T15:23:58;20.85;;;11.43;;
39814;SDS011;25495;45.948;4.568;2023-02-15T15:26:25;17.92;;;11.20;;
39814;SDS011;25495;45.948;4.568;2023-02-15T15:28:53;21.20;;;12.30;;
39814;SDS011;25495;45.948;4.568;2023-02-15T15:36:50;16.48;;;10.07;;
39814;SDS011;25495;45.948;4.568;2023-02-15T15:48:33;18.08;;;9.35;;
39814;SDS011;25495;45.948;4.568;2023-02-15T15:53:58;24.65;;;12.80;;
39814;SDS011;25495;45.948;4.568;2023-02-15T15:56:26;19.58;;;12.32;;
39814;SDS011;25495;45.948;4.568;2023-02-15T15:58:57;19.13;;;11.35;;
39814;SDS011;25495;45.948;4.568;2023-02-15T16:01:27;27.58;;;12.43;;
39814;SDS011;25495;45.948;4.568;2023-02-15T16:03:56;19.30;;;11.77;;
39814;SDS011;25495;45.948;4.568;2023-02-15T16:06:30;21.33;;;12.23;;
39814;SDS011;25495;45.948;4.568;2023-02-15T16:09:18;29.35;;;14.00;;
39814;SDS011;25495;45.948;4.568;2023-02-15T16:11:47;20.80;;;12.50;;
39814;SDS011;25495;45.948;4.568;2023-02-15T16:14:29;20.05;;;12.63;;
39814;SDS011;25495;45.948;4.568;2023-02-15T16:17:07;23.23;;;12.95;;
39814;SDS011;25495;45.948;4.568;2023-02-15T16:19:42;18.88;;;11.40;;
39814;SDS011;25495;45.948;4.568;2023-02-15T16:22:16;23.88;;;12.48;;
39814;SDS011;25495;45.948;4.568;2023-02-15T16:27:43;22.23;;;12.25;;
39814;SDS011;25495;45.948;4.568;2023-02-15T16:33:03;19.90;;;11.93;;
39814;SDS011;25495;45.948;4.568;2023-02-15T16:35:29;24.38;;;13.43;;
39814;SDS011;25495;45.948;4.568;2023-02-15T16:37:55;23.52;;;13.27;;
39814;SDS011;25495;45.948;4.568;2023-02-15T16:42:50;13.73;;;8.65;;
39814;SDS011;25495;45.948;4.568;2023-02-15T16:45:19;14.32;;;8.95;;
39814;SDS011;25495;45.948;4.568;2023-02-15T16:47:48;23.85;;;13.23;;
39814;SDS011;25495;45.948;4.568;2023-02-15T16:52:46;21.77;;;12.70;;
39814;SDS011;25495;45.948;4.568;2023-02-15T16:55:22;20.30;;;11.20;;
39814;SDS011;25495;45.948;4.568;2023-02-15T17:00:25;26.17;;;15.35;;
39814;SDS011;25495;45.948;4.568;2023-02-15T17:03:38;24.33;;;13.50;;
39814;SDS011;25495;45.948;4.568;2023-02-15T17:08:12;23.30;;;13.90;;
39814;SDS011;25495;45.948;4.568;2023-02-15T17:11:01;25.55;;;14.45;;
39814;SDS011;25495;45.948;4.568;2023-02-15T17:13:38;22.63;;;13.27;;
39814;SDS011;25495;45.948;4.568;2023-02-15T17:18:31;21.50;;;12.13;;
39814;SDS011;25495;45.948;4.568;2023-02-15T17:21:00;26.85;;;13.75;;
39814;SDS011;25495;45.948;4.568;2023-02-15T17:23:44;26.17;;;14.88;;
39814;SDS011;25495;45.948;4.568;2023-02-15T17:26:20;27.67;;;15.40;;
39814;SDS011;25495;45.948;4.568;2023-02-15T17:28:49;29.30;;;15.00;;
39814;SDS011;25495;45.948;4.568;2023-02-15T17:31:38;19.87;;;13.00;;
39814;SDS011;25495;45.948;4.568;2023-02-15T17:34:04;24.65;;;13.52;;
39814;SDS011;25495;45.948;4.568;2023-02-15T17:36:31;22.02;;;13.32;;
39814;SDS011;25495;45.948;4.568;2023-02-15T17:41:29;21.75;;;11.73;;
39814;SDS011;25495;45.948;4.568;2023-02-15T17:43:56;22.58;;;12.15;;
39814;SDS011;25495;45.948;4.568;2023-02-15T17:46:23;22.00;;;12.60;;
39814;SDS011;25495;45.948;4.568;2023-02-15T17:48:51;19.73;;;12.18;;
39814;SDS011;25495;45.948;4.568;2023-02-15T17:51:19;22.05;;;13.32;;
39814;SDS011;25495;45.948;4.568;2023-02-15T17:53:45;24.85;;;14.57;;
39814;SDS011;25495;45.948;4.568;2023-02-15T17:56:33;26.02;;;15.40;;
39814;SDS011;25495;45.948;4.568;2023-02-15T17:59:00;24.63;;;15.43;;
39814;SDS011;25495;45.948;4.568;2023-02-15T18:01:26;30.05;;;18.35;;
39814;SDS011;25495;45.948;4.568;2023-02-15T18:04:11;38.95;;;23.27;;
39814;SDS011;25495;45.948;4.568;2023-02-15T18:06:57;33.97;;;19.20;;
39814;SDS011;25495;45.948;4.568;2023-02-15T18:09:42;33.42;;;19.27;;
39814;SDS011;25495;45.948;4.568;2023-02-15T18:12:27;26.92;;;15.77;;
39814;SDS011;25495;45.948;4.568;2023-02-15T18:14:58;24.50;;;14.07;;
39814;SDS011;25495;45.948;4.568;2023-02-15T18:19:53;24.10;;;14.43;;